Latest Weather Observations for Whyalla

IDS60801

Issued at 1:35 pm CST Wednesday 16 April 2014 (issued every 30 minutes, with the page automatically refreshed every 10 minutes)

About weather observations | Map of weather stations | Latest weather observations for SA | Other Formats
Station Details ID: 018120 Name: WHYALLA AERO Lat: -33.05 Lon: 137.52 Height: 6.5 m
Data from the previous 72 hours. | See also: Recent months at Whyalla
Date/Time
CST
Temp
°C
App
Temp
°C
Dew
Point
Rel
Hum
%
Delta-T
°C
Wind Press
QNH
hPa
Press
MSL
hPa
Rain
since 9 am
mm
Dir
 
Spd
km/h
Gust
km/h
Spd
kts
Gust
kts
16/12:00pm 23.3 21.5 9.3 41 7.5 WNW 9 17 5 9 1019.9 1019.8 0.0
16/11:30am 22.6 20.1 9.7 44 7.0 WNW 13 20 7 11 1020.4 - 0.0
16/11:00am 22.3 19.6 10.5 47 6.5 WNW 15 20 8 11 1020.7 - 0.0
16/10:30am 21.2 18.4 11.5 54 5.4 NNW 17 20 9 11 1020.7 - 0.0
16/10:00am 20.0 18.5 13.0 64 4.0 N 13 19 7 10 1020.6 - 0.0
16/09:30am 18.4 17.8 13.5 73 2.8 NNW 9 13 5 7 1020.9 - 0.0
16/09:00am 17.0 16.2 14.1 83 1.6 NNW 11 13 6 7 1021.0 1020.9 0.0
16/08:30am 14.3 13.5 13.0 92 0.7 NNW 9 13 5 7 1020.8 - 0.0
16/08:00am 12.8 11.4 12.2 96 0.3 NNW 11 13 6 7 1020.7 - 0.0
16/07:30am 11.4 10.0 10.8 96 0.3 NNW 9 11 5 6 1020.7 - 0.0
16/07:00am 10.6 8.9 10.0 96 0.3 NNW 9 11 5 6 1020.4 - 0.0
16/06:30am 10.4 8.7 9.8 96 0.3 NW 9 11 5 6 1020.3 - 0.0
16/06:00am 10.8 9.2 10.2 96 0.3 NNW 9 9 5 5 1019.8 1019.7 0.0
16/05:30am 10.8 9.1 10.0 95 0.4 NW 9 15 5 8 1019.9 - 0.0
16/05:00am 11.0 9.5 10.4 96 0.3 NW 9 13 5 7 1019.8 - 0.0
16/04:30am 11.3 9.8 10.7 96 0.3 NW 9 13 5 7 1019.9 - 0.0
16/04:00am 11.0 9.5 10.4 96 0.3 NNW 9 11 5 6 1019.8 - 0.0
16/03:30am 10.6 8.9 9.8 95 0.4 WNW 9 11 5 6 1020.1 - 0.0
16/03:00am 11.2 10.0 10.4 95 0.4 NW 7 9 4 5 1020.1 1020.0 0.0
16/02:30am 11.1 9.1 10.2 94 0.5 W 11 13 6 7 1020.2 - 0.0
16/02:00am 11.2 9.6 10.1 93 0.6 WNW 9 9 5 5 1020.1 - 0.0
16/01:30am 11.7 10.5 10.4 92 0.7 NW 7 9 4 5 1020.5 - 0.0
16/01:00am 12.8 11.9 11.4 91 0.7 WSW 7 9 4 5 1020.4 - 0.0
16/12:30am 12.9 11.6 11.3 90 0.8 WSW 9 13 5 7 1020.4 - 0.0
16/12:00am 13.2 11.2 11.6 90 0.8 WSW 13 15 7 8 1020.7 1020.6 0.0
 
Date/Time
CST
Temp
°C
App
Temp
°C
Dew
Point
Rel
Hum
%
Delta-T
°C
Wind Press
QNH
hPa
Press
MSL
hPa
Rain
since 9 am
mm
Dir
 
Spd
km/h
Gust
km/h
Spd
kts
Gust
kts
15/11:30pm 13.0 11.4 11.4 90 0.8 W 11 13 6 7 1020.8 - 0.0
15/11:00pm 13.1 13.5 11.2 88 1.0 NW 0 0 0 0 1020.8 - 0.0
15/10:30pm 14.0 13.2 11.7 86 1.2 W 7 11 4 6 1021.2 - 0.0
15/10:00pm 14.8 14.0 11.8 82 1.6 SW 7 11 4 6 1021.4 - 0.0
15/09:30pm 17.5 16.9 13.4 77 2.3 S 9 17 5 9 1021.3 - 0.0
15/09:00pm 18.3 16.3 12.7 70 3.1 S 15 20 8 11 1021.3 1021.2 0.0
15/08:30pm 18.2 15.6 12.0 67 3.4 S 17 20 9 11 1021.0 - 0.0
15/08:00pm 18.1 15.4 13.0 72 2.9 S 19 22 10 12 1020.9 - 0.0
15/07:30pm 18.0 15.7 13.1 73 2.8 S 17 22 9 12 1020.6 - 0.0
15/07:00pm 18.3 15.8 13.6 74 2.7 S 19 24 10 13 1020.4 - 0.0
15/06:30pm 18.5 15.9 13.1 71 3.0 S 19 22 10 12 1020.2 - 0.0
15/06:00pm 18.9 16.2 12.9 68 3.4 S 19 24 10 13 1020.0 1019.9 0.0
15/05:30pm 20.0 16.9 11.5 58 4.7 S 19 24 10 13 1019.9 - 0.0
15/05:00pm 21.1 17.1 9.0 46 6.4 S 20 24 11 13 1019.9 - 0.0
15/04:30pm 21.6 17.5 8.8 44 6.8 S 20 24 11 13 1019.8 - 0.0
15/04:00pm 22.0 17.8 7.4 39 7.6 S 19 24 10 13 1019.8 - 0.0
15/03:30pm 22.0 18.4 8.2 41 7.2 S 17 20 9 11 1019.9 - 0.0
15/03:00pm 21.8 18.3 8.7 43 6.9 S 17 22 9 12 1019.9 1019.8 0.0
15/02:30pm 21.5 18.5 9.1 45 6.6 S 15 20 8 11 1020.0 - 0.0
15/02:00pm 21.6 18.8 10.1 48 6.2 S 15 19 8 10 1020.2 - 0.0
15/01:30pm 21.0 18.8 10.8 52 5.6 SSE 13 15 7 8 1020.4 - 0.0
15/01:00pm 21.1 19.1 10.3 50 5.9 SSE 11 19 6 10 1020.8 - 0.0
15/12:30pm 20.9 18.5 11.3 54 5.3 SSE 15 20 8 11 1021.3 - 0.0
15/12:00pm 20.3 18.1 10.7 54 5.2 SSE 13 19 7 10 1021.8 1021.7 0.0
15/11:30am 19.6 17.7 11.9 61 4.3 ESE 13 20 7 11 1022.2 - 0.0
15/11:00am 18.8 16.8 11.6 63 4.0 SSE 13 20 7 11 1022.5 - 0.0
15/10:30am 18.6 17.5 11.9 65 3.7 ESE 9 15 5 8 1022.6 - 0.0
15/10:00am 18.0 16.6 12.2 69 3.2 E 11 17 6 9 1022.7 - 0.0
15/09:30am 17.6 15.7 12.9 74 2.6 E 15 19 8 10 1022.6 - 0.0
15/09:00am 17.2 15.2 12.7 75 2.5 ESE 15 20 8 11 1022.7 1022.6 0.0
15/08:30am 16.4 13.4 11.8 74 2.5 SE 19 26 10 14 1022.5 - 0.0
15/08:00am 16.3 13.7 11.9 75 2.4 SE 17 26 9 14 1022.4 - 0.0
15/07:30am 15.5 13.2 11.7 78 2.1 SE 15 20 8 11 1022.4 - 0.0
15/07:00am 14.7 13.2 12.0 84 1.5 SE 11 19 6 10 1022.2 - 0.0
15/06:30am 14.6 12.8 12.1 85 1.4 SE 13 19 7 10 1022.0 - 0.0
15/06:00am 14.8 12.7 12.3 85 1.4 SSE 15 20 8 11 1021.7 1021.6 0.0
15/05:30am 14.7 12.5 12.2 85 1.4 SE 15 22 8 12 1021.5 - 0.0
15/05:00am 15.1 12.2 12.2 83 1.6 SE 19 24 10 13 1021.4 - 0.0
15/04:30am 15.2 12.3 12.3 83 1.6 SE 19 26 10 14 1021.4 - 0.0
15/04:00am 15.2 13.0 12.1 82 1.7 SSE 15 22 8 12 1021.5 - 0.0
15/03:30am 15.3 13.1 12.1 81 1.7 SSE 15 22 8 12 1021.5 - 0.0
15/03:00am 15.5 12.4 12.1 80 1.8 SE 20 30 11 16 1021.5 1021.4 0.0
15/02:30am 15.6 12.6 12.0 79 2.0 SE 19 26 10 14 1021.6 - 0.0
15/02:00am 15.7 12.7 12.1 79 2.0 SE 19 28 10 15 1021.6 - 0.0
15/01:30am 15.9 12.9 12.1 78 2.1 SE 19 26 10 14 1022.0 - 0.0
15/01:00am 15.8 13.2 12.0 78 2.1 SE 17 24 9 13 1022.1 - 0.0
15/12:30am 16.2 13.4 11.2 72 2.7 SE 17 24 9 13 1022.1 - 0.0
15/12:00am 16.1 14.2 10.4 69 3.0 SE 11 15 6 8 1022.1 1022.0 0.0
 
Date/Time
CST
Temp
°C
App
Temp
°C
Dew
Point
Rel
Hum
%
Delta-T
°C
Wind Press
QNH
hPa
Press
MSL
hPa
Rain
since 9 am
mm
Dir
 
Spd
km/h
Gust
km/h
Spd
kts
Gust
kts
14/11:30pm 16.7 13.9 10.1 65 3.5 SSE 15 19 8 10 1022.0 - 0.0
14/11:00pm 16.7 14.3 10.1 65 3.5 SSE 13 19 7 10 1022.2 - 0.0
14/10:30pm 16.5 14.6 10.6 68 3.1 SSE 11 13 6 7 1022.2 - 0.0
14/10:00pm 17.1 15.5 11.4 69 3.1 SSE 11 17 6 9 1022.3 - 0.0
14/09:30pm 17.6 15.5 12.3 71 2.9 S 15 22 8 12 1022.3 - 0.0
14/09:00pm 17.9 14.9 12.6 71 2.9 S 20 28 11 15 1022.0 1021.9 0.0
14/08:30pm 18.2 14.3 12.0 67 3.4 SSE 24 35 13 19 1021.8 - 0.0
14/08:00pm 18.6 13.8 11.7 64 3.8 SSE 28 37 15 20 1021.4 - 0.0
14/07:30pm 19.0 14.9 11.3 61 4.2 SSE 24 39 13 21 1021.2 - 0.0
14/07:00pm 19.5 15.3 11.0 58 4.6 S 24 35 13 19 1021.0 - 0.0
14/06:30pm 19.8 15.4 10.5 55 5.0 S 24 32 13 17 1020.7 - 0.0
14/06:00pm 19.4 15.9 13.3 68 3.5 S 24 32 13 17 1020.3 1020.2 0.0
14/05:30pm 20.0 15.1 12.7 63 4.1 SSW 30 39 16 21 1019.9 - 0.0
14/05:00pm 20.6 15.5 13.1 62 4.3 SSW 32 46 17 25 1019.6 - 0.0
14/04:30pm 21.1 16.5 13.5 62 4.4 SSW 30 39 16 21 1019.6 - 0.0
14/04:00pm 21.1 16.1 13.3 61 4.5 S 32 39 17 21 1019.4 - 0.0
14/03:30pm 21.2 17.6 14.1 64 4.1 S 26 32 14 17 1019.5 - 0.0
14/03:00pm 20.8 17.1 14.0 65 3.9 S 26 32 14 17 1019.7 1019.6 0.0
14/02:30pm 21.4 18.0 13.8 62 4.4 S 24 30 13 16 1019.7 - 0.0
14/02:00pm 20.9 18.3 13.8 64 4.1 S 20 28 11 15 1019.7 - 0.0
14/01:30pm 19.7 17.4 14.1 70 3.2 S 19 26 10 14 1020.0 - 0.0
14/01:00pm 19.3 16.9 13.7 70 3.2 S 19 28 10 15 1020.3 - 0.0
14/12:30pm 19.5 17.8 13.7 69 3.3 S 15 20 8 11 1020.8 - 0.0
14/12:00pm 18.6 16.4 13.2 71 3.0 S 17 22 9 12 1021.3 1021.2 0.0
14/11:30am 18.2 16.5 13.5 74 2.7 S 15 20 8 11 1021.7 - 0.0
14/11:00am 18.1 16.5 13.8 76 2.4 SSE 15 22 8 12 1022.0 - 0.0
14/10:30am 17.5 15.3 13.4 77 2.3 S 17 24 9 13 1022.3 - 0.0
14/10:00am 17.0 15.1 13.1 78 2.2 SSE 15 20 8 11 1022.5 - 0.0
14/09:30am 16.6 14.7 13.1 80 2.0 SSE 15 19 8 10 1022.5 - 0.0
14/09:04am 16.1 13.8 13.0 82 1.7 SSE 17 22 9 12 1022.3 - 0.0
14/09:00am 15.9 13.5 12.8 82 1.7 SSE 17 22 9 12 1022.3 1022.2 0.0
14/08:30am 15.9 13.6 13.0 83 1.6 SSE 17 20 9 11 1022.3 - 0.0
14/08:20am 15.7 13.3 12.8 83 1.6 SSE 17 22 9 12 1022.2 - 0.0
14/08:00am 15.4 13.0 12.7 84 1.5 SE 17 24 9 13 1022.0 - 0.0
14/07:30am 15.3 14.2 13.1 87 1.2 S 11 15 6 8 1021.7 - 0.0
14/07:00am 14.4 13.5 12.6 89 1.0 S 9 11 5 6 1021.4 - 0.0
14/06:51am 14.4 13.4 12.4 88 1.1 S 9 13 5 7 1021.3 - 0.0
14/06:42am 14.5 13.2 12.4 87 1.1 S 11 15 6 8 1021.2 - 0.0
14/06:30am 14.6 13.3 12.5 87 1.1 S 11 15 6 8 1021.2 - 0.0
14/06:00am 14.9 13.8 13.1 89 1.0 S 11 15 6 8 1021.1 1021.0 0.0
14/05:31am 14.9 13.7 12.8 87 1.2 SSE 11 15 6 8 1021.0 - 0.0
14/05:30am 14.9 13.7 12.8 87 1.2 SSE 11 15 6 8 1021.0 - 0.0
14/05:00am 14.0 13.0 12.2 89 1.0 S 9 11 5 6 1021.0 - 0.0
14/04:30am 14.4 13.4 12.4 88 1.1 S 9 11 5 6 1020.9 - 0.0
14/04:00am 15.4 14.5 12.5 83 1.6 S 9 13 5 7 1020.9 - 0.0
14/03:30am 15.9 14.2 12.6 81 1.8 SSE 13 17 7 9 1020.7 - 0.0
14/03:00am 16.1 14.5 12.7 80 1.9 SSE 13 22 7 12 1020.8 1020.7 0.0
14/02:30am 16.3 14.7 12.7 79 2.0 SSE 13 20 7 11 1020.9 - 0.0
14/02:00am 16.4 14.7 12.4 77 2.2 SSE 13 22 7 12 1021.1 - 0.0
14/01:30am 16.7 14.3 12.5 76 2.3 SSE 17 20 9 11 1021.1 - 0.0
14/01:00am 16.8 13.8 12.1 74 2.6 SSE 19 28 10 15 1021.1 - 0.0
14/12:30am 16.8 13.6 11.9 73 2.7 SSE 20 32 11 17 1020.8 - 0.0
14/12:00am 17.2 13.6 11.9 71 2.9 SSE 22 33 12 18 1020.8 1020.7 0.0
 
Date/Time
CST
Temp
°C
App
Temp
°C
Dew
Point
Rel
Hum
%
Delta-T
°C
Wind Press
QNH
hPa
Press
MSL
hPa
Rain
since 9 am
mm
Dir
 
Spd
km/h
Gust
km/h
Spd
kts
Gust
kts
13/11:30pm 16.8 13.8 12.5 76 2.4 SSE 20 28 11 15 1020.9 - 0.0
13/11:00pm 16.7 13.4 12.8 78 2.2 S 22 30 12 16 1021.1 - 0.0
13/10:30pm 16.8 14.0 13.1 79 2.1 S 20 30 11 16 1021.1 - 0.0
13/10:00pm 16.9 13.8 13.4 80 2.0 S 22 32 12 17 1021.2 - 0.0
13/09:30pm 16.9 13.7 13.2 79 2.1 S 22 32 12 17 1021.1 - 0.0
13/09:00pm 17.2 13.8 12.5 74 2.6 SSE 22 33 12 18 1021.2 1021.1 0.0
13/08:30pm 17.2 13.9 11.5 69 3.1 S 20 32 11 17 1021.0 - 0.0
13/08:00pm 17.6 13.9 11.6 68 3.3 S 22 30 12 16 1020.9 - 0.0
13/07:30pm 17.5 13.4 12.8 74 2.6 S 26 35 14 19 1020.8 - 0.0
13/07:00pm 17.4 12.9 12.7 74 2.6 S 28 37 15 20 1020.6 - 0.0
13/06:30pm 17.2 12.2 12.1 72 2.8 SSW 30 35 16 19 1020.5 - 0.0
13/06:00pm 17.3 11.9 12.2 72 2.8 SSW 32 41 17 22 1020.0 1019.9 0.0
13/05:30pm 17.8 12.3 12.3 70 3.0 SSW 33 41 18 22 1019.8 - 0.0
13/05:00pm 18.4 12.9 12.4 68 3.3 S 33 43 18 23 1019.7 - 0.0
13/04:30pm 18.9 13.6 12.4 66 3.6 S 32 41 17 22 1019.7 - 0.0
13/04:00pm 19.4 14.0 12.2 63 4.0 SSW 32 39 17 21 1019.6 - 0.0
13/03:30pm 19.3 13.9 12.1 63 4.0 SSW 32 37 17 20 1019.6 - 0.0
13/03:00pm 19.7 15.3 12.9 65 3.8 S 28 37 15 20 1019.5 1019.4 0.0
13/02:30pm 19.5 14.9 12.3 63 4.0 S 28 35 15 19 1019.6 - 0.0
13/02:00pm 19.5 15.5 11.8 61 4.3 S 24 32 13 17 1019.7 - 0.0

Other Formats:

Comma delimited format used in spreadsheet applications
http://www.bom.gov.au/fwo/IDS60801/IDS60801.95664.axf

JavaScript Object Notation format (JSON) in row-major order
http://www.bom.gov.au/fwo/IDS60801/IDS60801.95664.json